createdAt,value
2018-05-21T00:02:09.330Z,1.83
2018-05-21T00:04:41.551Z,2.10
2018-05-21T00:07:14.015Z,2.03
2018-05-21T00:09:45.390Z,1.83
2018-05-21T00:12:16.815Z,2.40
2018-05-21T00:14:48.185Z,2.20
2018-05-21T00:17:19.572Z,1.80
2018-05-21T00:19:52.427Z,2.10
2018-05-21T00:22:23.817Z,2.00
2018-05-21T00:24:55.311Z,1.97
2018-05-21T00:27:27.627Z,2.03
2018-05-21T00:29:59.026Z,1.97
2018-05-21T00:32:30.408Z,1.60
2018-05-21T00:35:01.850Z,2.13
2018-05-21T00:37:33.327Z,1.90
2018-05-21T00:40:05.181Z,2.27
2018-05-21T00:42:37.016Z,2.27
2018-05-21T00:45:08.406Z,2.30
2018-05-21T00:47:39.993Z,2.30
2018-05-21T00:50:11.341Z,2.07
2018-05-21T00:52:44.568Z,2.30
2018-05-21T00:55:33.015Z,2.20
2018-05-21T00:58:04.033Z,2.10
2018-05-21T01:00:36.506Z,2.00
2018-05-21T01:03:08.669Z,2.40
2018-05-21T01:05:40.826Z,2.10
2018-05-21T01:08:12.658Z,2.50
2018-05-21T01:10:44.022Z,2.50
2018-05-21T01:13:16.193Z,2.17
2018-05-21T01:15:49.395Z,1.97
2018-05-21T01:18:20.975Z,2.00
2018-05-21T01:20:52.393Z,2.67
2018-05-21T01:23:24.010Z,2.30
2018-05-21T01:25:55.446Z,2.23
2018-05-21T01:28:26.825Z,2.30
2018-05-21T01:30:59.905Z,2.47
2018-05-21T01:33:31.253Z,2.30
2018-05-21T01:36:07.804Z,1.93
2018-05-21T01:38:39.516Z,2.10
2018-05-21T01:41:11.025Z,2.10
2018-05-21T01:43:42.438Z,2.10
2018-05-21T01:46:13.831Z,2.30
2018-05-21T01:48:45.200Z,2.37
2018-05-21T01:51:16.593Z,2.10
2018-05-21T01:53:48.731Z,2.40
2018-05-21T01:56:21.050Z,2.53
2018-05-21T01:58:52.441Z,2.50
2018-05-21T02:01:23.853Z,2.10
2018-05-21T02:03:56.282Z,2.20
2018-05-21T02:06:27.720Z,2.23
2018-05-21T02:08:59.229Z,2.17
2018-05-21T02:11:31.786Z,2.03
2018-05-21T02:14:03.209Z,2.20
2018-05-21T02:16:34.692Z,2.40
2018-05-21T02:19:07.583Z,2.30
2018-05-21T02:21:39.723Z,2.33
2018-05-21T02:24:11.119Z,2.30
2018-05-21T02:26:42.516Z,2.40
2018-05-21T02:29:13.921Z,2.17
2018-05-21T02:31:46.032Z,2.30
2018-05-21T02:34:17.434Z,2.00
2018-05-21T02:36:49.721Z,2.67
2018-05-21T02:39:21.199Z,2.00
2018-05-21T02:41:52.617Z,2.20
2018-05-21T02:44:24.831Z,2.33
2018-05-21T02:46:55.969Z,2.20
2018-05-21T02:49:27.349Z,2.10
2018-05-21T02:51:58.852Z,2.10
2018-05-21T02:54:30.203Z,2.27
2018-05-21T02:57:01.498Z,2.17
2018-05-21T02:59:32.847Z,2.30
2018-05-21T03:02:04.642Z,2.30
2018-05-21T03:04:36.088Z,1.80
2018-05-21T03:07:08.254Z,2.30
2018-05-21T03:09:40.411Z,2.30
2018-05-21T03:12:12.541Z,2.07
2018-05-21T03:14:44.218Z,2.10
2018-05-21T03:17:15.575Z,2.40
2018-05-21T03:19:47.733Z,2.23
2018-05-21T03:22:19.947Z,2.17
2018-05-21T03:24:52.198Z,2.27
2018-05-21T03:27:25.414Z,2.00
2018-05-21T03:29:57.639Z,2.67
2018-05-21T03:32:29.025Z,2.40
2018-05-21T03:35:00.403Z,1.87
2018-05-21T03:37:33.054Z,1.93
2018-05-21T03:40:04.209Z,2.10
2018-05-21T03:42:35.640Z,2.50
2018-05-21T03:45:07.786Z,2.10
2018-05-21T03:47:38.841Z,2.30
2018-05-21T03:50:10.429Z,2.27
2018-05-21T03:52:41.815Z,2.10
2018-05-21T03:55:13.202Z,2.50
2018-05-21T03:57:44.546Z,2.57
2018-05-21T04:00:32.554Z,2.17
2018-05-21T04:03:20.875Z,2.17
2018-05-21T04:05:54.059Z,2.53
2018-05-21T04:08:25.475Z,2.53
2018-05-21T04:10:57.641Z,2.37
2018-05-21T04:13:29.062Z,2.00
2018-05-21T04:16:00.518Z,2.00
2018-05-21T04:18:31.425Z,2.60
2018-05-21T04:21:03.027Z,2.07
2018-05-21T04:23:34.480Z,2.43
2018-05-21T04:26:05.871Z,2.10
2018-05-21T04:28:38.029Z,2.00
2018-05-21T04:31:10.172Z,2.27
2018-05-21T04:33:41.590Z,2.20
2018-05-21T04:36:13.903Z,2.40
2018-05-21T04:38:45.253Z,2.00
2018-05-21T04:41:17.451Z,1.93
2018-05-21T04:43:49.413Z,2.03
2018-05-21T04:46:20.786Z,1.93
2018-05-21T04:48:52.145Z,1.73
2018-05-21T04:51:23.522Z,2.00
2018-05-21T04:53:55.181Z,2.20
2018-05-21T04:56:26.554Z,2.30
2018-05-21T04:58:58.738Z,2.10
2018-05-21T05:01:30.897Z,1.97
2018-05-21T05:04:04.053Z,2.10
2018-05-21T05:06:35.607Z,1.90
2018-05-21T05:09:07.622Z,2.10
2018-05-21T05:11:39.010Z,2.10
2018-05-21T05:14:10.389Z,2.17
2018-05-21T05:16:42.665Z,2.10
2018-05-21T05:19:14.079Z,2.70
2018-05-21T05:21:45.627Z,2.20
2018-05-21T05:24:17.093Z,2.03
2018-05-21T05:26:48.451Z,2.00
2018-05-21T05:29:19.925Z,2.20
2018-05-21T05:31:51.309Z,2.23
2018-05-21T05:34:22.672Z,2.93
2018-05-21T05:36:54.174Z,2.03
2018-05-21T05:39:26.451Z,1.60
2018-05-21T05:41:57.842Z,2.23
2018-05-21T05:44:29.997Z,1.90
2018-05-21T05:47:02.235Z,2.10
2018-05-21T05:49:33.607Z,2.13
2018-05-21T05:52:04.722Z,2.10
2018-05-21T05:54:36.091Z,1.93
2018-05-21T05:57:07.491Z,1.70
2018-05-21T05:59:39.467Z,2.13
2018-05-21T06:02:10.818Z,2.07
2018-05-21T06:04:42.421Z,2.30
2018-05-21T06:07:14.854Z,2.10
2018-05-21T06:09:46.465Z,1.97
2018-05-21T06:12:19.169Z,2.20
2018-05-21T06:14:50.561Z,2.13
2018-05-21T06:17:22.488Z,2.30
2018-05-21T06:19:53.842Z,2.20
2018-05-21T06:22:25.747Z,2.20
2018-05-21T06:24:57.157Z,2.00
2018-05-21T06:27:29.717Z,2.03
2018-05-21T06:30:01.148Z,2.00
2018-05-21T06:32:33.345Z,1.97
2018-05-21T06:35:04.414Z,2.00
2018-05-21T06:37:35.834Z,2.27
2018-05-21T06:40:07.184Z,2.77
2018-05-21T06:42:39.390Z,2.30
2018-05-21T06:45:12.178Z,2.57
2018-05-21T06:47:43.631Z,2.47
2018-05-21T06:50:15.233Z,2.20
2018-05-21T06:52:46.624Z,2.33
2018-05-21T06:55:18.050Z,2.20
2018-05-21T06:57:49.816Z,2.40
2018-05-21T07:00:21.273Z,2.20
2018-05-21T07:02:53.701Z,2.40
2018-05-21T07:05:25.836Z,2.33
2018-05-21T07:07:58.998Z,2.30
2018-05-21T07:10:30.500Z,2.43
2018-05-21T07:13:01.924Z,2.50
2018-05-21T07:15:33.355Z,2.03
2018-05-21T07:18:04.689Z,2.30
2018-05-21T07:20:36.365Z,2.40
2018-05-21T07:23:07.507Z,2.03
2018-05-21T07:25:39.209Z,2.57
2018-05-21T07:28:11.620Z,2.77
2018-05-21T07:30:43.013Z,2.30
2018-05-21T07:33:14.647Z,2.90
2018-05-21T07:35:46.037Z,2.27
2018-05-21T07:38:18.236Z,2.33
2018-05-21T07:40:50.732Z,2.40
2018-05-21T07:43:22.974Z,2.17
2018-05-21T07:45:55.942Z,2.33
2018-05-21T07:48:27.353Z,2.40
2018-05-21T07:50:59.054Z,2.40
2018-05-21T07:53:30.465Z,2.57
2018-05-21T07:56:01.981Z,2.23
2018-05-21T07:58:33.769Z,2.57
2018-05-21T08:01:05.181Z,2.50
2018-05-21T08:03:36.736Z,2.50
2018-05-21T08:06:08.099Z,2.20
2018-05-21T08:08:40.230Z,2.43
2018-05-21T08:11:12.428Z,2.70
2018-05-21T08:13:44.633Z,2.93
2018-05-21T08:16:15.680Z,2.53
2018-05-21T08:18:47.065Z,2.47
2018-05-21T08:21:18.727Z,2.60
2018-05-21T08:23:50.938Z,2.77
2018-05-21T08:26:23.342Z,2.70
2018-05-21T08:28:55.258Z,3.03
2018-05-21T08:31:26.439Z,2.53
2018-05-21T08:33:58.871Z,2.50
2018-05-21T08:36:30.258Z,3.10
2018-05-21T08:39:01.643Z,2.57
2018-05-21T08:41:33.184Z,3.10
2018-05-21T08:44:04.585Z,2.73
2018-05-21T08:46:35.970Z,2.97
2018-05-21T08:49:07.422Z,2.47
2018-05-21T08:51:38.856Z,2.63
2018-05-21T08:54:10.846Z,3.10
2018-05-21T08:56:42.260Z,2.90
2018-05-21T08:59:14.437Z,2.93
2018-05-21T09:01:45.799Z,3.03
2018-05-21T09:04:17.970Z,3.20
2018-05-21T09:06:49.503Z,3.40
2018-05-21T09:09:21.680Z,3.57
2018-05-21T09:11:53.138Z,3.17
2018-05-21T09:14:25.310Z,3.00
2018-05-21T09:16:57.745Z,2.97
2018-05-21T09:19:29.921Z,3.20
2018-05-21T09:22:01.529Z,3.33
2018-05-21T09:24:32.908Z,3.50
2018-05-21T09:27:04.606Z,3.23
2018-05-21T09:29:37.462Z,3.17
2018-05-21T09:32:09.679Z,3.40
2018-05-21T09:34:41.402Z,3.30
2018-05-21T09:37:12.456Z,3.83
2018-05-21T09:39:44.621Z,3.50
2018-05-21T09:42:15.739Z,3.20
2018-05-21T09:44:47.104Z,3.07
2018-05-21T09:47:18.562Z,3.47
2018-05-21T09:49:50.045Z,3.80
2018-05-21T09:52:22.181Z,3.90
2018-05-21T09:54:53.647Z,3.30
2018-05-21T09:57:25.830Z,3.87
2018-05-21T09:59:57.984Z,3.43
2018-05-21T10:02:30.179Z,3.00
2018-05-21T10:05:01.895Z,3.40
2018-05-21T10:07:33.322Z,3.53
2018-05-21T10:10:04.806Z,3.83
2018-05-21T10:12:36.317Z,4.23
2018-05-21T10:15:07.375Z,4.10
2018-05-21T10:17:39.084Z,3.60
2018-05-21T10:20:10.487Z,4.20
2018-05-21T10:22:42.002Z,3.73
2018-05-21T10:25:13.989Z,3.62
2018-05-21T10:27:46.680Z,4.57
2018-05-21T10:30:20.149Z,4.00
2018-05-21T10:32:52.106Z,3.90
2018-05-21T10:35:24.102Z,4.28
2018-05-21T10:37:56.839Z,4.10
2018-05-21T10:40:28.436Z,3.92
2018-05-21T10:43:00.437Z,3.60
2018-05-21T10:45:32.249Z,3.62
2018-05-21T10:48:04.377Z,3.62
2018-05-21T10:50:36.454Z,3.87
2018-05-21T10:53:08.211Z,3.70
2018-05-21T10:55:40.344Z,3.25
2018-05-21T10:58:13.304Z,3.28
2018-05-21T11:00:45.308Z,3.92
2018-05-21T11:03:17.469Z,3.90
2018-05-21T11:05:49.458Z,3.80
2018-05-21T11:08:21.426Z,3.37
2018-05-21T11:10:53.460Z,3.45
2018-05-21T11:13:26.699Z,4.30
2018-05-21T11:15:59.031Z,3.45
2018-05-21T11:18:31.092Z,3.47
2018-05-21T11:21:03.318Z,3.50
2018-05-21T11:23:35.415Z,3.40
2018-05-21T11:26:08.306Z,3.40
2018-05-21T11:28:40.265Z,2.87
2018-05-21T11:31:13.006Z,3.40
2018-05-21T11:33:45.014Z,3.20
2018-05-21T11:36:17.765Z,2.90
2018-05-21T11:38:49.811Z,3.17
2018-05-21T11:41:21.790Z,3.35
2018-05-21T11:43:53.713Z,3.60
2018-05-21T11:46:25.838Z,3.60
2018-05-21T11:48:57.914Z,3.33
2018-05-21T11:51:29.873Z,2.97
2018-05-21T11:54:01.593Z,2.85
2018-05-21T11:56:33.559Z,3.22
2018-05-21T11:59:07.077Z,3.20
2018-05-21T12:01:39.068Z,2.90
2018-05-21T12:04:11.041Z,2.58
2018-05-21T12:06:43.154Z,2.78
2018-05-21T12:09:16.274Z,2.20
2018-05-21T12:11:48.345Z,2.40
2018-05-21T12:14:20.600Z,2.60
2018-05-21T12:16:52.501Z,2.70
2018-05-21T12:19:24.470Z,2.70
2018-05-21T12:21:57.247Z,2.55
2018-05-21T12:24:29.226Z,2.75
2018-05-21T12:27:01.925Z,2.70
2018-05-21T12:29:33.886Z,2.70
2018-05-21T12:32:06.248Z,2.40
2018-05-21T12:34:38.186Z,2.33
2018-05-21T12:37:10.287Z,2.67
2018-05-21T12:39:42.252Z,2.50
2018-05-21T12:42:14.971Z,2.33
2018-05-21T12:44:46.883Z,2.90
2018-05-21T12:47:18.827Z,2.40
2018-05-21T12:49:50.982Z,2.33
2018-05-21T12:52:22.942Z,2.40
2018-05-21T12:54:55.297Z,2.30
2018-05-21T12:57:27.193Z,2.95
2018-05-21T12:59:59.190Z,2.85
2018-05-21T13:02:31.151Z,2.42
2018-05-21T13:05:03.187Z,2.90
2018-05-21T13:07:35.324Z,2.50
2018-05-21T13:10:07.576Z,2.30
2018-05-21T13:12:40.540Z,2.50
2018-05-21T13:15:13.326Z,2.40
2018-05-21T13:17:45.469Z,2.42
2018-05-21T13:20:17.431Z,2.50
2018-05-21T13:22:49.459Z,2.33
2018-05-21T13:25:21.403Z,2.10
2018-05-21T13:27:53.409Z,2.62
2018-05-21T13:30:26.429Z,2.42
2018-05-21T13:32:59.878Z,2.65
2018-05-21T13:35:31.850Z,2.58
2018-05-21T13:38:03.852Z,2.80
2018-05-21T13:40:35.905Z,2.35
2018-05-21T13:43:07.940Z,2.35
2018-05-21T13:45:40.050Z,2.53
2018-05-21T13:48:11.989Z,2.33
2018-05-21T13:50:43.920Z,2.80
2018-05-21T13:53:15.891Z,2.30
2018-05-21T13:55:48.219Z,2.40
2018-05-21T13:58:20.121Z,2.33
2018-05-21T14:00:52.271Z,2.17
2018-05-21T14:03:25.068Z,2.50
2018-05-21T14:05:57.745Z,2.30
2018-05-21T14:08:29.733Z,2.20
2018-05-21T14:11:01.690Z,2.80
2018-05-21T14:13:33.690Z,2.22
2018-05-21T14:16:05.589Z,2.45
2018-05-21T14:18:38.575Z,2.65
2018-05-21T14:21:11.407Z,2.28
2018-05-21T14:23:43.689Z,2.28
2018-05-21T14:26:15.402Z,2.28
2018-05-21T14:28:47.411Z,2.45
2018-05-21T14:31:20.126Z,2.53
2018-05-21T14:33:52.898Z,2.45
2018-05-21T14:36:24.794Z,2.50
2018-05-21T14:38:56.813Z,2.42
2018-05-21T14:41:27.744Z,2.65
2018-05-21T14:43:59.861Z,2.70
2018-05-21T14:46:31.976Z,2.60
2018-05-21T14:49:04.685Z,2.22
2018-05-21T14:51:37.407Z,1.90
2018-05-21T14:54:09.336Z,2.42
2018-05-21T14:56:41.254Z,2.78
2018-05-21T14:59:13.169Z,2.08
2018-05-21T15:01:45.948Z,2.12
2018-05-21T15:04:18.633Z,2.10
2018-05-21T15:06:52.037Z,2.12
2018-05-21T15:09:24.097Z,2.50
2018-05-21T15:11:56.107Z,2.08
2018-05-21T15:14:28.072Z,2.22
2018-05-21T15:17:00.011Z,2.47
2018-05-21T15:19:32.007Z,2.40
2018-05-21T15:22:03.927Z,2.78
2018-05-21T15:24:35.970Z,2.12
2018-05-21T15:27:07.876Z,1.98
2018-05-21T15:29:39.838Z,2.42
2018-05-21T15:32:11.781Z,2.20
2018-05-21T15:34:43.733Z,2.60
2018-05-21T15:37:16.772Z,2.35
2018-05-21T15:39:48.685Z,2.47
2018-05-21T15:42:21.390Z,2.62
2018-05-21T15:44:53.648Z,2.17
2018-05-21T15:47:26.863Z,2.33
2018-05-21T15:49:58.809Z,2.47
2018-05-21T15:52:31.585Z,2.08
2018-05-21T15:55:03.584Z,2.30
2018-05-21T15:57:35.653Z,2.20
2018-05-21T16:00:07.049Z,2.47
2018-05-21T16:02:39.054Z,1.77
2018-05-21T16:05:11.135Z,2.00
2018-05-21T16:07:43.151Z,2.45
2018-05-21T16:10:15.909Z,2.45
2018-05-21T16:12:47.893Z,2.10
2018-05-21T16:15:19.951Z,1.85
2018-05-21T16:17:52.239Z,2.15
2018-05-21T16:20:24.395Z,2.40
2018-05-21T16:22:55.796Z,2.10
2018-05-21T16:25:27.756Z,1.95
2018-05-21T16:27:59.671Z,2.90
2018-05-21T16:30:31.461Z,2.47
2018-05-21T16:33:02.856Z,2.80
2018-05-21T16:35:34.271Z,2.80
2018-05-21T16:38:05.183Z,2.20
2018-05-21T16:40:39.516Z,2.30
2018-05-21T16:43:10.904Z,2.70
2018-05-21T16:45:43.256Z,2.13
2018-05-21T16:48:14.628Z,2.17
2018-05-21T16:50:46.790Z,2.17
2018-05-21T16:53:18.994Z,2.30
2018-05-21T16:55:50.091Z,2.20
2018-05-21T16:58:22.310Z,2.03
2018-05-21T17:00:53.713Z,2.20
2018-05-21T17:03:25.882Z,1.90
2018-05-21T17:05:57.454Z,2.50
2018-05-21T17:08:29.616Z,2.07
2018-05-21T17:11:01.028Z,2.50
2018-05-21T17:13:32.490Z,2.20
2018-05-21T17:16:04.554Z,2.10
2018-05-21T17:18:36.398Z,1.83
2018-05-21T17:21:08.892Z,2.40
2018-05-21T17:23:40.310Z,2.33
2018-05-21T17:26:12.439Z,1.80
2018-05-21T17:28:43.881Z,2.10
2018-05-21T17:31:15.799Z,2.57
2018-05-21T17:33:47.997Z,1.93
2018-05-21T17:36:19.369Z,2.10
2018-05-21T17:38:50.796Z,1.67
2018-05-21T17:41:22.181Z,2.50
2018-05-21T17:43:53.629Z,2.23
2018-05-21T17:46:25.528Z,2.60
2018-05-21T17:48:57.298Z,2.00
2018-05-21T17:51:29.430Z,1.97
2018-05-21T17:54:00.971Z,1.90
2018-05-21T17:56:32.401Z,2.60
2018-05-21T17:59:03.848Z,2.37
2018-05-21T18:01:35.229Z,2.10
2018-05-21T18:04:06.917Z,2.00
2018-05-21T18:06:38.491Z,1.80
2018-05-21T18:09:09.893Z,2.00
2018-05-21T18:11:41.620Z,1.93
2018-05-21T18:14:13.042Z,1.90
2018-05-21T18:16:44.560Z,1.63
2018-05-21T18:19:17.480Z,2.10
2018-05-21T18:21:48.947Z,1.93
2018-05-21T18:24:20.358Z,1.90
2018-05-21T18:26:51.775Z,1.93
2018-05-21T18:29:23.185Z,1.80
2018-05-21T18:31:55.406Z,1.80
2018-05-21T18:34:27.097Z,2.20
2018-05-21T18:36:58.563Z,2.47
2018-05-21T18:39:31.145Z,1.83
2018-05-21T18:42:02.571Z,1.70
2018-05-21T18:44:34.029Z,1.80
2018-05-21T18:47:06.914Z,2.07
2018-05-21T18:49:39.133Z,2.10
2018-05-21T18:52:10.480Z,2.00
2018-05-21T18:54:41.881Z,2.27
2018-05-21T18:57:13.410Z,1.80
2018-05-21T18:59:44.873Z,1.80
2018-05-21T19:02:16.263Z,1.90
2018-05-21T19:04:47.694Z,1.83
2018-05-21T19:07:19.306Z,1.97
2018-05-21T19:09:51.042Z,2.13
2018-05-21T19:12:22.484Z,2.10
2018-05-21T19:14:54.150Z,2.50
2018-05-21T19:17:25.590Z,2.50
2018-05-21T19:19:57.332Z,2.80
2018-05-21T19:22:29.557Z,2.30
2018-05-21T19:25:00.969Z,2.23
2018-05-21T19:27:33.175Z,1.83
2018-05-21T19:30:03.947Z,1.97
2018-05-21T19:32:35.797Z,1.87
2018-05-21T19:35:07.213Z,2.27
2018-05-21T19:37:38.942Z,2.33
2018-05-21T19:40:11.248Z,2.77
2018-05-21T19:42:42.782Z,2.43
2018-05-21T19:45:14.351Z,2.43
2018-05-21T19:47:45.714Z,2.43
2018-05-21T19:50:17.129Z,2.20
2018-05-21T19:52:48.575Z,2.40
2018-05-21T19:55:20.737Z,2.27
2018-05-21T19:57:53.245Z,2.27
2018-05-21T20:00:24.721Z,2.27
2018-05-21T20:02:56.302Z,2.47
2018-05-21T20:05:28.750Z,3.30
2018-05-21T20:08:00.111Z,2.50
2018-05-21T20:10:31.038Z,2.00
2018-05-21T20:13:02.408Z,2.13
2018-05-21T20:15:33.822Z,2.60
2018-05-21T20:18:05.551Z,2.20
2018-05-21T20:20:43.864Z,2.60
2018-05-21T20:23:15.571Z,2.13
2018-05-21T20:25:46.947Z,2.23
2018-05-21T20:28:18.496Z,2.00
2018-05-21T20:30:49.879Z,2.00
2018-05-21T20:33:21.456Z,1.93
2018-05-21T20:35:53.575Z,2.47
2018-05-21T20:38:26.518Z,2.17
2018-05-21T20:40:57.968Z,2.17
2018-05-21T20:43:29.407Z,2.50
2018-05-21T20:46:01.584Z,2.03
2018-05-21T20:48:33.407Z,2.40
2018-05-21T20:51:04.897Z,2.20
2018-05-21T20:53:37.038Z,2.17
2018-05-21T20:56:08.886Z,2.07
2018-05-21T20:58:41.097Z,2.03
2018-05-21T21:01:12.593Z,2.30
2018-05-21T21:03:44.168Z,2.60
2018-05-21T21:06:15.787Z,2.13
2018-05-21T21:08:47.147Z,2.70
2018-05-21T21:11:18.587Z,2.30
2018-05-21T21:13:50.050Z,2.03
2018-05-21T21:16:21.603Z,2.23
2018-05-21T21:18:53.029Z,2.00
2018-05-21T21:21:24.409Z,1.83
2018-05-21T21:23:55.865Z,2.20
2018-05-21T21:26:27.580Z,2.37
2018-05-21T21:28:59.732Z,1.90
2018-05-21T21:31:31.859Z,2.03
2018-05-21T21:34:03.289Z,2.07
2018-05-21T21:36:34.687Z,2.23
2018-05-21T21:39:06.305Z,2.03
2018-05-21T21:41:37.671Z,2.10
2018-05-21T21:44:09.067Z,2.23
2018-05-21T21:46:40.428Z,2.27
2018-05-21T21:49:12.618Z,2.47
2018-05-21T21:51:44.015Z,2.47
2018-05-21T21:54:15.855Z,2.53
2018-05-21T21:56:47.499Z,2.47
2018-05-21T21:59:18.649Z,2.27
2018-05-21T22:01:49.900Z,2.43
2018-05-21T22:04:21.254Z,2.20
2018-05-21T22:06:52.682Z,6.10
2018-05-21T22:09:24.127Z,4.43
2018-05-21T22:11:55.233Z,3.10
2018-05-21T22:14:27.018Z,3.00
2018-05-21T22:16:59.259Z,3.03
2018-05-21T22:19:31.446Z,2.67
2018-05-21T22:22:03.929Z,3.17
2018-05-21T22:24:35.357Z,3.40
2018-05-21T22:27:06.873Z,3.57
2018-05-21T22:29:38.233Z,3.77
2018-05-21T22:32:09.668Z,3.47
2018-05-21T22:34:42.154Z,4.27
2018-05-21T22:37:13.620Z,3.83
2018-05-21T22:39:45.063Z,4.17
2018-05-21T22:42:17.283Z,4.50
2018-05-21T22:44:49.816Z,4.20
2018-05-21T22:47:21.280Z,3.80
2018-05-21T22:49:52.782Z,4.13
2018-05-21T22:52:24.220Z,3.70
2018-05-21T22:54:55.602Z,3.77
2018-05-21T22:57:26.985Z,3.90
2018-05-21T22:59:58.414Z,4.40
2018-05-21T23:02:29.749Z,4.30
2018-05-21T23:05:01.179Z,4.47
2018-05-21T23:07:32.923Z,4.60
2018-05-21T23:10:04.073Z,4.70
2018-05-21T23:12:35.600Z,4.20
2018-05-21T23:15:07.197Z,3.80
2018-05-21T23:17:38.619Z,4.03
2018-05-21T23:20:10.026Z,4.00
2018-05-21T23:22:45.965Z,4.27
2018-05-21T23:25:18.161Z,4.10
2018-05-21T23:27:50.468Z,4.50
2018-05-21T23:30:21.851Z,4.27
2018-05-21T23:32:53.297Z,3.83
2018-05-21T23:35:25.465Z,3.60
2018-05-21T23:37:56.866Z,4.17
2018-05-21T23:40:28.225Z,3.67
2018-05-21T23:42:59.743Z,3.97
2018-05-21T23:45:31.147Z,3.67
2018-05-21T23:48:03.565Z,3.83
2018-05-21T23:50:34.935Z,4.50
2018-05-21T23:53:06.345Z,3.80
2018-05-21T23:55:38.523Z,3.83
2018-05-21T23:58:10.707Z,3.83
